createdAt,value
2019-03-29T00:01:51.016Z,103068.86
2019-03-29T00:03:52.451Z,103070.66
2019-03-29T00:05:53.846Z,103073.26
2019-03-29T00:07:55.221Z,103074.27
2019-03-29T00:09:56.581Z,103077.63
2019-03-29T00:11:57.932Z,103076.02
2019-03-29T00:13:59.307Z,103070.73
2019-03-29T00:16:00.651Z,103073.94
2019-03-29T00:18:02.232Z,103074.52
2019-03-29T00:20:06.324Z,103070.71
2019-03-29T00:22:08.147Z,103072.08
2019-03-29T00:24:09.523Z,103067.15
2019-03-29T00:26:10.880Z,103067.31
2019-03-29T00:28:12.257Z,103063.94
2019-03-29T00:30:13.758Z,103062.45
2019-03-29T00:32:15.089Z,103063.39
2019-03-29T00:34:16.495Z,103068.19
2019-03-29T00:36:18.058Z,103061.95
2019-03-29T00:38:19.412Z,103066.28
2019-03-29T00:40:20.804Z,103064.39
2019-03-29T00:42:22.221Z,103068.40
2019-03-29T00:44:23.609Z,103066.75
2019-03-29T00:46:24.991Z,103065.62
2019-03-29T00:48:26.385Z,103066.25
2019-03-29T00:50:27.755Z,103059.39
2019-03-29T00:52:29.231Z,103058.25
2019-03-29T00:54:30.601Z,103061.25
2019-03-29T00:56:32.070Z,103058.44
2019-03-29T00:58:33.421Z,103068.89
2019-03-29T01:00:34.903Z,103067.98
2019-03-29T01:02:36.277Z,103064.92
2019-03-29T01:04:37.637Z,103050.75
2019-03-29T01:06:39.479Z,103057.56
2019-03-29T01:08:40.985Z,103052.50
2019-03-29T01:10:42.444Z,103048.80
2019-03-29T01:12:43.859Z,103051.11
2019-03-29T01:14:45.215Z,103051.77
2019-03-29T01:16:46.604Z,103046.52
2019-03-29T01:18:47.946Z,103045.48
2019-03-29T01:20:49.462Z,103048.86
2019-03-29T01:22:50.801Z,103044.81
2019-03-29T01:24:52.167Z,103044.75
2019-03-29T01:26:53.571Z,103043.98
2019-03-29T01:28:54.904Z,103040.22
2019-03-29T01:30:56.342Z,103042.64
2019-03-29T01:32:58.894Z,103039.20
2019-03-29T01:35:00.563Z,103035.00
2019-03-29T01:37:01.970Z,103035.18
2019-03-29T01:39:04.727Z,103034.18
2019-03-29T01:41:06.073Z,103033.16
2019-03-29T01:43:07.445Z,103032.72
2019-03-29T01:45:09.385Z,103034.61
2019-03-29T01:47:10.782Z,103031.52
2019-03-29T01:49:12.156Z,103026.22
2019-03-29T01:51:13.521Z,103023.27
2019-03-29T01:53:14.899Z,103019.85
2019-03-29T01:55:16.384Z,103017.59
2019-03-29T01:57:17.760Z,103017.56
2019-03-29T01:59:19.109Z,103016.61
2019-03-29T02:01:20.495Z,103013.21
2019-03-29T02:03:21.874Z,103012.58
2019-03-29T02:05:23.228Z,103012.30
2019-03-29T02:07:24.619Z,103007.27
2019-03-29T02:09:25.977Z,103008.31
2019-03-29T02:11:27.366Z,103005.19
2019-03-29T02:13:28.711Z,103006.45
2019-03-29T02:15:30.135Z,103007.31
2019-03-29T02:17:31.478Z,103005.05
2019-03-29T02:19:32.925Z,103001.90
2019-03-29T02:21:34.322Z,103000.52
2019-03-29T02:23:35.691Z,103005.95
2019-03-29T02:25:37.103Z,103004.62
2019-03-29T02:27:38.506Z,103003.45
2019-03-29T02:29:39.854Z,103000.51
2019-03-29T02:31:42.371Z,103000.34
2019-03-29T02:33:44.301Z,102999.90
2019-03-29T02:35:45.669Z,102995.19
2019-03-29T02:37:47.066Z,102992.10
2019-03-29T02:39:48.438Z,102992.08
2019-03-29T02:41:49.789Z,102989.99
2019-03-29T02:43:51.169Z,102989.66
2019-03-29T02:45:52.498Z,102986.88
2019-03-29T02:47:53.850Z,102981.23
2019-03-29T02:49:55.228Z,102979.99
2019-03-29T02:51:56.574Z,102985.59
2019-03-29T02:53:57.933Z,102988.16
2019-03-29T02:55:59.314Z,102987.39
2019-03-29T02:58:00.691Z,102992.94
2019-03-29T03:00:05.857Z,102997.06
2019-03-29T03:02:07.353Z,102992.95
2019-03-29T03:04:08.757Z,102997.72
2019-03-29T03:06:10.107Z,102984.14
2019-03-29T03:08:11.602Z,102991.45
2019-03-29T03:10:13.388Z,102993.76
2019-03-29T03:12:14.827Z,102996.87
2019-03-29T03:14:16.194Z,102995.25
2019-03-29T03:16:17.546Z,102989.22
2019-03-29T03:18:18.915Z,102989.13
2019-03-29T03:20:20.285Z,102993.73
2019-03-29T03:22:21.637Z,102999.02
2019-03-29T03:24:23.008Z,103002.58
2019-03-29T03:26:24.399Z,103005.05
2019-03-29T03:28:25.746Z,103004.88
2019-03-29T03:30:27.113Z,102999.56
2019-03-29T03:32:28.562Z,102994.16
2019-03-29T03:34:29.930Z,102996.70
2019-03-29T03:36:31.290Z,103000.81
2019-03-29T03:38:32.656Z,103000.78
2019-03-29T03:40:34.104Z,103002.78
2019-03-29T03:42:35.703Z,102998.76
2019-03-29T03:44:37.043Z,102995.97
2019-03-29T03:46:38.398Z,103003.48
2019-03-29T03:48:39.793Z,103007.51
2019-03-29T03:50:41.741Z,103003.28
2019-03-29T03:52:43.427Z,103002.24
2019-03-29T03:54:44.787Z,103001.53
2019-03-29T03:56:47.866Z,102999.39
2019-03-29T03:58:49.861Z,103004.00
2019-03-29T04:00:54.091Z,103003.50
2019-03-29T04:02:55.527Z,103002.45
2019-03-29T04:04:56.880Z,103000.45
2019-03-29T04:06:58.290Z,103002.23
2019-03-29T04:08:59.730Z,103001.09
2019-03-29T04:11:01.260Z,103006.19
2019-03-29T04:13:02.895Z,103002.45
2019-03-29T04:15:04.559Z,102997.33
2019-03-29T04:17:05.945Z,102995.41
2019-03-29T04:19:07.312Z,102999.20
2019-03-29T04:21:08.699Z,102999.16
2019-03-29T04:23:10.076Z,102998.51
2019-03-29T04:25:11.450Z,103005.95
2019-03-29T04:27:12.832Z,103000.78
2019-03-29T04:29:14.225Z,103003.28
2019-03-29T04:31:15.635Z,103002.59
2019-03-29T04:33:17.018Z,103001.45
2019-03-29T04:35:18.371Z,103003.39
2019-03-29T04:37:20.640Z,103007.15
2019-03-29T04:39:22.015Z,103009.61
2019-03-29T04:41:23.421Z,103009.53
2019-03-29T04:43:24.785Z,103013.83
2019-03-29T04:45:26.149Z,103012.92
2019-03-29T04:47:27.539Z,103012.77
2019-03-29T04:49:28.893Z,103010.97
2019-03-29T04:51:30.263Z,103011.06
2019-03-29T04:53:31.669Z,103011.14
2019-03-29T04:55:33.040Z,103015.98
2019-03-29T04:57:34.431Z,103012.87
2019-03-29T04:59:35.807Z,103013.86
2019-03-29T05:01:37.166Z,103013.23
2019-03-29T05:03:38.551Z,103012.32
2019-03-29T05:05:40.018Z,103013.98
2019-03-29T05:07:41.386Z,103012.25
2019-03-29T05:09:42.802Z,103015.61
2019-03-29T05:11:44.245Z,103009.55
2019-03-29T05:13:45.650Z,103012.33
2019-03-29T05:15:47.009Z,103012.16
2019-03-29T05:17:48.363Z,103004.88
2019-03-29T05:19:49.767Z,103003.20
2019-03-29T05:21:51.176Z,103006.78
2019-03-29T05:23:52.550Z,103003.98
2019-03-29T05:25:53.919Z,103000.68
2019-03-29T05:27:55.274Z,103006.14
2019-03-29T05:29:56.673Z,103002.30
2019-03-29T05:32:02.030Z,103003.77
2019-03-29T05:34:03.454Z,103001.48
2019-03-29T05:36:04.834Z,103003.06
2019-03-29T05:38:06.204Z,103010.16
2019-03-29T05:40:07.810Z,103005.37
2019-03-29T05:42:09.153Z,103002.02
2019-03-29T05:44:10.575Z,102998.48
2019-03-29T05:46:11.985Z,103000.67
2019-03-29T05:48:13.344Z,103001.75
2019-03-29T05:50:14.958Z,103001.66
2019-03-29T05:52:16.374Z,102999.28
2019-03-29T05:54:17.777Z,103002.76
2019-03-29T05:56:19.186Z,103006.02
2019-03-29T05:58:20.595Z,103005.61
2019-03-29T06:00:22.206Z,103002.42
2019-03-29T06:02:23.569Z,103007.25
2019-03-29T06:04:24.944Z,103005.50
2019-03-29T06:06:26.381Z,103006.07
2019-03-29T06:08:27.748Z,103003.25
2019-03-29T06:10:29.103Z,103000.68
2019-03-29T06:12:30.500Z,102997.50
2019-03-29T06:14:31.856Z,102996.46
2019-03-29T06:16:39.009Z,102999.64
2019-03-29T06:18:36.514Z,103001.80
2019-03-29T06:20:37.883Z,103001.25
2019-03-29T06:22:39.322Z,102995.58
2019-03-29T06:24:40.703Z,102996.10
2019-03-29T06:26:42.105Z,102997.13
2019-03-29T06:28:43.495Z,102998.59
2019-03-29T06:30:45.549Z,103000.33
2019-03-29T06:32:46.924Z,102996.20
2019-03-29T06:34:48.303Z,103000.52
2019-03-29T06:36:50.307Z,103004.31
2019-03-29T06:38:53.517Z,103006.31
2019-03-29T06:41:02.780Z,103003.58
2019-03-29T06:42:58.166Z,103008.19
2019-03-29T06:44:59.620Z,103004.67
2019-03-29T06:47:00.979Z,103005.11
2019-03-29T06:49:02.396Z,103007.22
2019-03-29T06:51:03.819Z,103005.09
2019-03-29T06:53:05.192Z,102997.90
2019-03-29T06:55:06.688Z,102996.91
2019-03-29T06:57:08.064Z,103000.16
2019-03-29T06:59:09.450Z,103004.28
2019-03-29T07:01:10.821Z,102999.45
2019-03-29T07:03:12.603Z,102994.64
2019-03-29T07:05:14.461Z,102991.12
2019-03-29T07:07:15.831Z,102994.17
2019-03-29T07:09:17.221Z,102993.56
2019-03-29T07:11:18.584Z,102996.77
2019-03-29T07:13:19.980Z,102993.39
2019-03-29T07:15:21.380Z,102992.30
2019-03-29T07:17:22.749Z,102994.99
2019-03-29T07:19:24.226Z,102994.02
2019-03-29T07:21:25.824Z,102997.05
2019-03-29T07:23:27.195Z,103002.72
2019-03-29T07:25:28.560Z,103008.91
2019-03-29T07:27:43.513Z,103005.96
2019-03-29T07:29:33.264Z,102996.55
2019-03-29T07:31:34.633Z,103000.30
2019-03-29T07:33:35.979Z,103001.48
2019-03-29T07:35:37.367Z,103007.12
2019-03-29T07:37:38.814Z,103002.31
2019-03-29T07:39:40.262Z,103005.93
2019-03-29T07:41:41.869Z,103004.45
2019-03-29T07:43:43.386Z,103004.02
2019-03-29T07:45:44.762Z,103005.34
2019-03-29T07:47:46.198Z,103005.73
2019-03-29T07:49:47.573Z,103010.20
2019-03-29T07:51:48.970Z,103007.86
2019-03-29T07:53:50.419Z,103008.69
2019-03-29T07:55:51.807Z,103007.34
2019-03-29T07:57:53.185Z,103011.42
2019-03-29T07:59:54.594Z,103009.31
2019-03-29T08:01:55.959Z,103008.98
2019-03-29T08:03:57.381Z,103006.66
2019-03-29T08:05:58.751Z,103010.83
2019-03-29T08:08:00.306Z,103004.91
2019-03-29T08:10:04.281Z,103011.11
2019-03-29T08:12:05.791Z,103004.98
2019-03-29T08:14:07.165Z,103011.48
2019-03-29T08:16:08.567Z,103007.58
2019-03-29T08:18:09.934Z,103006.09
2019-03-29T08:20:38.887Z,103012.73
2019-03-29T08:22:14.736Z,103012.23
2019-03-29T08:24:16.248Z,103014.58
2019-03-29T08:26:17.718Z,103016.06
2019-03-29T08:28:19.121Z,103012.44
2019-03-29T08:30:20.534Z,103003.61
2019-03-29T08:32:21.973Z,103010.87
2019-03-29T08:34:23.363Z,103014.73
2019-03-29T08:36:24.776Z,103012.92
2019-03-29T08:38:26.221Z,103007.22
2019-03-29T08:40:27.601Z,103007.67
2019-03-29T08:42:29.019Z,103009.48
2019-03-29T08:44:30.390Z,103010.02
2019-03-29T08:46:31.764Z,103006.06
2019-03-29T08:48:33.256Z,103007.19
2019-03-29T08:50:34.632Z,103007.47
2019-03-29T08:52:35.995Z,103005.00
2019-03-29T08:54:37.398Z,103000.25
2019-03-29T08:56:38.795Z,103003.00
2019-03-29T08:58:40.216Z,103006.42
2019-03-29T09:00:41.663Z,103008.42
2019-03-29T09:02:43.087Z,103004.77
2019-03-29T09:04:44.547Z,103004.88
2019-03-29T09:06:53.310Z,103003.60
2019-03-29T09:08:49.637Z,102997.86
2019-03-29T09:10:51.071Z,102999.98
2019-03-29T09:12:52.458Z,103000.28
2019-03-29T09:14:53.828Z,102995.02
2019-03-29T09:16:55.227Z,102998.33
2019-03-29T09:18:56.600Z,102993.70
2019-03-29T09:20:58.466Z,102994.59
2019-03-29T09:22:59.875Z,102991.67
2019-03-29T09:25:01.260Z,102988.78
2019-03-29T09:27:02.668Z,102987.47
2019-03-29T09:29:04.025Z,102988.83
2019-03-29T09:31:05.487Z,102987.84
2019-03-29T09:33:06.938Z,102979.31
2019-03-29T09:35:08.320Z,102984.09
2019-03-29T09:37:09.758Z,102984.16
2019-03-29T09:39:11.117Z,102980.69
2019-03-29T09:41:12.508Z,102982.07
2019-03-29T09:43:13.921Z,102977.48
2019-03-29T09:45:15.269Z,102974.45
2019-03-29T09:47:16.658Z,102978.03
2019-03-29T09:49:18.049Z,102972.11
2019-03-29T09:51:19.414Z,102976.66
2019-03-29T09:53:20.768Z,102964.70
2019-03-29T09:55:22.184Z,102971.36
2019-03-29T09:57:36.757Z,102964.76
2019-03-29T09:59:26.888Z,102961.73
2019-03-29T10:01:28.382Z,102970.30
2019-03-29T10:03:29.917Z,102959.95
2019-03-29T10:05:31.780Z,102961.91
2019-03-29T10:07:33.197Z,102961.02
2019-03-29T10:09:34.559Z,102957.64
2019-03-29T10:11:35.947Z,102959.31
2019-03-29T10:13:37.339Z,102958.17
2019-03-29T10:15:38.696Z,102954.31
2019-03-29T10:17:40.082Z,102951.26
2019-03-29T10:19:41.730Z,102953.16
2019-03-29T10:21:43.078Z,102950.74
2019-03-29T10:23:44.576Z,102954.93
2019-03-29T10:25:45.948Z,102952.02
2019-03-29T10:27:47.309Z,102948.64
2019-03-29T10:29:48.723Z,102941.89
2019-03-29T10:31:50.084Z,102941.19
2019-03-29T10:33:51.424Z,102936.75
2019-03-29T10:35:53.212Z,102934.30
2019-03-29T10:37:54.632Z,102932.13
2019-03-29T10:39:55.981Z,102930.63
2019-03-29T10:41:57.374Z,102928.18
2019-03-29T10:43:58.971Z,102926.45
2019-03-29T10:46:00.359Z,102927.20
2019-03-29T10:48:01.949Z,102927.75
2019-03-29T10:50:05.233Z,102922.75
2019-03-29T10:52:06.588Z,102925.69
2019-03-29T10:54:07.996Z,102924.41
2019-03-29T10:56:09.723Z,102920.89
2019-03-29T10:58:11.067Z,102916.73
2019-03-29T11:00:21.512Z,102910.30
2019-03-29T11:02:23.267Z,102913.67
2019-03-29T11:04:24.620Z,102908.52
2019-03-29T11:06:26.030Z,102907.65
2019-03-29T11:08:27.376Z,102906.52
2019-03-29T11:10:34.441Z,102907.75
2019-03-29T11:12:35.819Z,102907.19
2019-03-29T11:14:37.175Z,102902.44
2019-03-29T11:16:38.750Z,102896.83
2019-03-29T11:18:40.107Z,102890.95
2019-03-29T11:20:41.452Z,102887.72
2019-03-29T11:22:42.882Z,102888.17
2019-03-29T11:24:44.240Z,102889.08
2019-03-29T11:26:45.620Z,102886.88
2019-03-29T11:28:46.985Z,102877.37
2019-03-29T11:30:48.343Z,102878.49
2019-03-29T11:32:49.726Z,102869.28
2019-03-29T11:34:51.132Z,102877.69
2019-03-29T11:36:53.037Z,102871.23
2019-03-29T11:38:54.611Z,102867.28
2019-03-29T11:40:55.963Z,102862.84
2019-03-29T11:42:57.360Z,102860.20
2019-03-29T11:44:58.750Z,102859.41
2019-03-29T11:47:00.098Z,102856.73
2019-03-29T11:49:01.763Z,102855.95
2019-03-29T11:51:03.177Z,102853.52
2019-03-29T11:53:04.560Z,102853.43
2019-03-29T11:55:06.060Z,102855.83
2019-03-29T11:57:07.440Z,102861.34
2019-03-29T11:59:08.815Z,102854.17
2019-03-29T12:01:10.182Z,102855.56
2019-03-29T12:03:12.569Z,102848.83
2019-03-29T12:05:13.932Z,102850.06
2019-03-29T12:07:15.528Z,102843.23
2019-03-29T12:09:16.893Z,102836.53
2019-03-29T12:11:18.504Z,102842.09
2019-03-29T12:13:19.871Z,102837.39
2019-03-29T12:15:21.524Z,102830.41
2019-03-29T12:17:22.927Z,102827.89
2019-03-29T12:19:27.069Z,102827.73
2019-03-29T12:21:28.430Z,102826.24
2019-03-29T12:23:29.824Z,102822.55
2019-03-29T12:25:31.267Z,102817.18
2019-03-29T12:27:32.637Z,102817.25
2019-03-29T12:29:34.051Z,102816.83
2019-03-29T12:31:35.446Z,102817.89
2019-03-29T12:33:36.829Z,102815.66
2019-03-29T12:35:38.238Z,102807.22
2019-03-29T12:37:39.612Z,102801.56
2019-03-29T12:39:40.954Z,102797.97
2019-03-29T12:41:42.345Z,102792.74
2019-03-29T12:43:54.997Z,102796.48
2019-03-29T12:45:46.987Z,102788.34
2019-03-29T12:47:48.404Z,102788.80
2019-03-29T12:49:49.759Z,102784.10
2019-03-29T12:51:51.125Z,102787.56
2019-03-29T12:53:52.623Z,102781.91
2019-03-29T12:55:54.059Z,102774.38
2019-03-29T12:57:55.428Z,102776.44
2019-03-29T12:59:56.834Z,102773.31
2019-03-29T13:01:58.193Z,102770.27
2019-03-29T13:03:59.535Z,102762.34
2019-03-29T13:06:00.935Z,102762.73
2019-03-29T13:08:02.288Z,102759.80
2019-03-29T13:10:07.347Z,102756.05
2019-03-29T13:12:08.765Z,102747.59
2019-03-29T13:14:10.959Z,102749.02
2019-03-29T13:16:12.661Z,102744.66
2019-03-29T13:18:14.078Z,102746.02
2019-03-29T13:20:15.460Z,102744.97
2019-03-29T13:22:16.891Z,102742.98
2019-03-29T13:24:18.304Z,102740.92
2019-03-29T13:26:19.693Z,102740.73
2019-03-29T13:28:21.043Z,102738.50
2019-03-29T13:30:22.535Z,102734.06
2019-03-29T13:32:23.894Z,102728.75
2019-03-29T13:34:25.235Z,102727.27
2019-03-29T13:36:26.625Z,102722.66
2019-03-29T13:38:27.967Z,102720.81
2019-03-29T13:40:29.440Z,102717.30
2019-03-29T13:42:30.824Z,102720.49
2019-03-29T13:44:32.169Z,102719.83
2019-03-29T13:46:33.525Z,102713.59
2019-03-29T13:48:35.039Z,102715.66
2019-03-29T13:50:36.422Z,102716.91
2019-03-29T13:52:37.793Z,102710.72
2019-03-29T13:54:39.175Z,102710.48
2019-03-29T13:56:40.546Z,102702.37
2019-03-29T13:58:41.923Z,102699.48
2019-03-29T14:00:43.268Z,102696.27
2019-03-29T14:02:44.626Z,102692.15
2019-03-29T14:04:46.020Z,102689.58
2019-03-29T14:06:47.398Z,102690.81
2019-03-29T14:08:48.788Z,102686.28
2019-03-29T14:10:50.127Z,102689.39
2019-03-29T14:12:51.490Z,102687.03
2019-03-29T14:14:52.891Z,102683.91
2019-03-29T14:16:54.247Z,102678.16
2019-03-29T14:18:55.615Z,102672.38
2019-03-29T14:20:57.013Z,102674.84
2019-03-29T14:22:59.261Z,102673.12
2019-03-29T14:25:00.713Z,102668.70
2019-03-29T14:27:02.071Z,102669.41
2019-03-29T14:29:03.427Z,102668.75
2019-03-29T14:31:04.833Z,102665.34
2019-03-29T14:33:06.198Z,102656.09
2019-03-29T14:35:07.838Z,102654.94
2019-03-29T14:37:09.232Z,102650.63
2019-03-29T14:39:10.634Z,102651.31
2019-03-29T14:41:12.004Z,102646.17
2019-03-29T14:43:13.361Z,102638.00
2019-03-29T14:45:14.872Z,102635.53
2019-03-29T14:47:16.226Z,102631.79
2019-03-29T14:49:17.584Z,102637.25
2019-03-29T14:51:18.992Z,102636.07
2019-03-29T14:53:20.353Z,102631.02
2019-03-29T14:55:21.727Z,102630.05
2019-03-29T14:57:23.093Z,102633.41
2019-03-29T14:59:24.468Z,102631.70
2019-03-29T15:01:25.850Z,102629.27
2019-03-29T15:03:27.223Z,102623.51
2019-03-29T15:05:28.682Z,102621.46
2019-03-29T15:07:30.280Z,102618.69
2019-03-29T15:09:31.639Z,102619.00
2019-03-29T15:11:33.028Z,102618.00
2019-03-29T15:13:34.420Z,102616.51
2019-03-29T15:15:35.794Z,102620.81
2019-03-29T15:17:37.188Z,102616.11
2019-03-29T15:19:38.526Z,102602.19
2019-03-29T15:21:39.928Z,102606.56
2019-03-29T15:23:41.318Z,102595.80
2019-03-29T15:25:42.673Z,102594.50
2019-03-29T15:27:44.062Z,102592.09
2019-03-29T15:29:45.416Z,102584.33
2019-03-29T15:31:46.811Z,102583.95
2019-03-29T15:33:48.203Z,102586.52
2019-03-29T15:35:49.572Z,102578.75
2019-03-29T15:37:50.932Z,102577.79
2019-03-29T15:39:52.307Z,102577.20
2019-03-29T15:41:53.676Z,102575.19
2019-03-29T15:43:55.028Z,102568.50
2019-03-29T15:45:56.415Z,102569.65
2019-03-29T15:47:57.913Z,102565.87
2019-03-29T15:49:59.313Z,102566.52
2019-03-29T15:52:00.794Z,102566.91
2019-03-29T15:54:02.277Z,102564.16
2019-03-29T15:56:03.643Z,102557.20
2019-03-29T15:58:05.006Z,102555.36
2019-03-29T16:00:08.968Z,102550.39
2019-03-29T16:02:10.313Z,102552.07
2019-03-29T16:04:11.809Z,102549.52
2019-03-29T16:06:13.195Z,102548.14
2019-03-29T16:08:14.538Z,102545.93
2019-03-29T16:10:15.946Z,102545.05
2019-03-29T16:12:17.376Z,102541.96
2019-03-29T16:14:18.744Z,102543.97
2019-03-29T16:16:20.099Z,102541.48
2019-03-29T16:18:21.504Z,102539.33
2019-03-29T16:20:22.854Z,102543.81
2019-03-29T16:22:24.236Z,102541.29
2019-03-29T16:24:25.595Z,102541.97
2019-03-29T16:26:26.966Z,102541.86
2019-03-29T16:28:28.489Z,102540.00
2019-03-29T16:30:29.864Z,102545.23
2019-03-29T16:32:31.226Z,102540.37
2019-03-29T16:34:32.599Z,102535.38
2019-03-29T16:36:33.972Z,102532.91
2019-03-29T16:38:35.385Z,102533.16
2019-03-29T16:40:36.744Z,102532.67
2019-03-29T16:42:38.103Z,102528.81
2019-03-29T16:44:39.494Z,102527.31
2019-03-29T16:46:40.845Z,102527.52
2019-03-29T16:48:42.252Z,102533.19
2019-03-29T16:50:43.825Z,102523.09
2019-03-29T16:52:45.184Z,102519.83
2019-03-29T16:54:46.563Z,102527.05
2019-03-29T16:56:47.922Z,102520.64
2019-03-29T16:58:49.279Z,102518.03
2019-03-29T17:00:50.686Z,102511.87
2019-03-29T17:02:52.066Z,102511.13
2019-03-29T17:04:53.406Z,102510.48
2019-03-29T17:06:54.790Z,102515.16
2019-03-29T17:08:56.157Z,102513.26
2019-03-29T17:10:57.535Z,102512.37
2019-03-29T17:12:58.978Z,102511.03
2019-03-29T17:15:00.470Z,102515.44
2019-03-29T17:17:01.878Z,102514.37
2019-03-29T17:19:03.288Z,102511.25
2019-03-29T17:21:04.716Z,102508.56
2019-03-29T17:23:06.321Z,102506.17
2019-03-29T17:25:07.909Z,102501.47
2019-03-29T17:27:09.272Z,102505.14
2019-03-29T17:29:10.734Z,102498.88
2019-03-29T17:31:14.008Z,102504.41
2019-03-29T17:33:15.361Z,102499.71
2019-03-29T17:35:16.871Z,102502.97
2019-03-29T17:37:18.305Z,102497.75
2019-03-29T17:39:22.113Z,102498.83
2019-03-29T17:41:22.957Z,102502.53
2019-03-29T17:43:24.369Z,102502.19
2019-03-29T17:45:25.832Z,102496.98
2019-03-29T17:47:27.172Z,102498.78
2019-03-29T17:49:28.595Z,102499.75
2019-03-29T17:51:29.932Z,102499.91
2019-03-29T17:53:31.294Z,102506.08
2019-03-29T17:55:32.883Z,102506.98
2019-03-29T17:57:34.255Z,102506.17
2019-03-29T17:59:35.594Z,102501.05
2019-03-29T18:01:39.324Z,102506.02
2019-03-29T18:03:40.458Z,102501.20
2019-03-29T18:05:41.806Z,102502.28
2019-03-29T18:07:43.216Z,102504.48
2019-03-29T18:09:44.602Z,102501.40
2019-03-29T18:11:45.980Z,102498.13
2019-03-29T18:13:47.407Z,102500.00
2019-03-29T18:15:48.766Z,102499.69
2019-03-29T18:17:50.123Z,102504.86
2019-03-29T18:19:51.527Z,102497.95
2019-03-29T18:21:52.899Z,102506.27
2019-03-29T18:23:54.257Z,102503.68
2019-03-29T18:25:55.650Z,102508.71
2019-03-29T18:27:57.004Z,102508.35
2019-03-29T18:29:58.450Z,102506.44
2019-03-29T18:31:59.845Z,102510.34
2019-03-29T18:34:01.313Z,102506.84
2019-03-29T18:36:03.709Z,102508.45
2019-03-29T18:38:05.197Z,102504.91
2019-03-29T18:40:23.671Z,102510.77
2019-03-29T18:42:25.103Z,102507.06
2019-03-29T18:44:26.511Z,102507.66
2019-03-29T18:46:27.877Z,102507.66
2019-03-29T18:48:29.252Z,102505.69
2019-03-29T18:50:30.705Z,102500.35
2019-03-29T18:52:32.100Z,102499.80
2019-03-29T18:54:33.546Z,102501.56
2019-03-29T18:56:34.910Z,102501.41
2019-03-29T18:58:36.324Z,102502.16
2019-03-29T19:00:37.775Z,102503.70
2019-03-29T19:02:39.192Z,102504.58
2019-03-29T19:04:40.563Z,102505.07
2019-03-29T19:06:41.910Z,102504.02
2019-03-29T19:08:43.309Z,102503.03
2019-03-29T19:10:44.750Z,102496.18
2019-03-29T19:12:46.097Z,102496.38
2019-03-29T19:14:47.558Z,102494.66
2019-03-29T19:16:58.857Z,102494.72
2019-03-29T19:18:52.295Z,102486.58
2019-03-29T19:20:53.624Z,102490.42
2019-03-29T19:22:55.223Z,102487.83
2019-03-29T19:24:56.577Z,102491.28
2019-03-29T19:26:58.050Z,102485.78
2019-03-29T19:28:59.443Z,102483.77
2019-03-29T19:31:01.262Z,102484.35
2019-03-29T19:33:02.644Z,102486.88
2019-03-29T19:35:05.618Z,102485.31
2019-03-29T19:37:06.968Z,102487.25
2019-03-29T19:39:08.312Z,102484.17
2019-03-29T19:41:09.865Z,102483.22
2019-03-29T19:43:11.637Z,102483.07
2019-03-29T19:45:14.287Z,102486.23
2019-03-29T19:47:15.679Z,102482.84
2019-03-29T19:49:17.043Z,102478.11
2019-03-29T19:51:18.420Z,102474.99
2019-03-29T19:53:19.839Z,102480.06
2019-03-29T19:55:21.200Z,102475.35
2019-03-29T19:57:22.594Z,102470.94
2019-03-29T19:59:24.157Z,102474.75
2019-03-29T20:01:25.488Z,102471.64
2019-03-29T20:03:26.839Z,102471.98
2019-03-29T20:05:28.541Z,102478.88
2019-03-29T20:07:29.936Z,102471.70
2019-03-29T20:09:31.256Z,102476.11
2019-03-29T20:11:32.659Z,102469.12
2019-03-29T20:13:34.065Z,102469.80
2019-03-29T20:15:35.428Z,102464.42
2019-03-29T20:17:36.818Z,102464.56
2019-03-29T20:19:38.200Z,102463.12
2019-03-29T20:21:39.561Z,102463.46
2019-03-29T20:23:40.924Z,102458.13
2019-03-29T20:25:42.415Z,102460.23
2019-03-29T20:27:43.768Z,102463.71
2019-03-29T20:29:45.138Z,102467.02
2019-03-29T20:31:49.943Z,102463.28
2019-03-29T20:33:49.867Z,102462.92
2019-03-29T20:35:51.263Z,102459.34
2019-03-29T20:37:52.676Z,102460.13
2019-03-29T20:39:53.995Z,102459.52
2019-03-29T20:41:55.400Z,102460.69
2019-03-29T20:43:56.770Z,102461.39
2019-03-29T20:45:58.140Z,102464.06
2019-03-29T20:48:00.045Z,102459.34
2019-03-29T20:50:02.999Z,102461.19
2019-03-29T20:52:04.387Z,102459.88
2019-03-29T20:54:05.771Z,102460.41
2019-03-29T20:56:07.178Z,102462.36
2019-03-29T20:58:08.531Z,102462.05
2019-03-29T21:00:11.730Z,102459.27
2019-03-29T21:02:13.106Z,102462.70
2019-03-29T21:04:14.504Z,102460.10
2019-03-29T21:06:15.931Z,102463.19
2019-03-29T21:08:17.328Z,102466.50
2019-03-29T21:10:18.715Z,102462.41
2019-03-29T21:12:20.312Z,102469.77
2019-03-29T21:14:21.696Z,102467.69
2019-03-29T21:16:23.049Z,102463.79
2019-03-29T21:18:24.430Z,102463.63
2019-03-29T21:20:25.820Z,102461.48
2019-03-29T21:22:27.148Z,102467.06
2019-03-29T21:24:28.543Z,102460.84
2019-03-29T21:26:29.881Z,102457.11
2019-03-29T21:28:31.253Z,102458.27
2019-03-29T21:30:32.747Z,102451.41
2019-03-29T21:32:34.200Z,102458.28
2019-03-29T21:34:35.597Z,102455.52
2019-03-29T21:36:37.022Z,102448.81
2019-03-29T21:38:38.477Z,102452.41
2019-03-29T21:40:39.834Z,102445.55
2019-03-29T21:42:41.202Z,102446.69
2019-03-29T21:44:45.196Z,102445.55
2019-03-29T21:46:45.957Z,102444.09
2019-03-29T21:48:47.330Z,102443.60
2019-03-29T21:50:48.682Z,102442.45
2019-03-29T21:52:50.035Z,102442.80
2019-03-29T21:54:51.443Z,102440.02
2019-03-29T21:56:52.808Z,102437.88
2019-03-29T21:58:54.160Z,102434.45
2019-03-29T22:00:55.550Z,102430.86
2019-03-29T22:02:56.916Z,102428.41
2019-03-29T22:04:58.317Z,102424.66
2019-03-29T22:06:59.707Z,102426.95
2019-03-29T22:09:01.090Z,102424.35
2019-03-29T22:11:02.420Z,102423.17
2019-03-29T22:13:03.855Z,102416.17
2019-03-29T22:15:07.319Z,102413.55
2019-03-29T22:17:08.906Z,102416.66
2019-03-29T22:19:10.260Z,102412.06
2019-03-29T22:21:11.624Z,102408.30
2019-03-29T22:23:13.034Z,102407.67
2019-03-29T22:25:14.397Z,102408.98
2019-03-29T22:27:15.759Z,102402.77
2019-03-29T22:29:17.160Z,102403.76
2019-03-29T22:31:18.504Z,102401.64
2019-03-29T22:33:19.920Z,102401.15
2019-03-29T22:35:21.284Z,102397.22
2019-03-29T22:37:22.656Z,102394.95
2019-03-29T22:39:24.221Z,102387.58
2019-03-29T22:41:25.662Z,102391.02
2019-03-29T22:43:27.014Z,102386.93
2019-03-29T22:45:28.374Z,102386.58
2019-03-29T22:47:29.949Z,102384.48
2019-03-29T22:49:31.307Z,102384.32
2019-03-29T22:51:32.672Z,102379.57
2019-03-29T22:53:34.060Z,102379.43
2019-03-29T22:55:35.433Z,102370.74
2019-03-29T22:57:36.834Z,102371.89
2019-03-29T22:59:38.206Z,102373.34
2019-03-29T23:01:42.267Z,102371.42
2019-03-29T23:03:43.776Z,102366.34
2019-03-29T23:05:45.132Z,102365.84
2019-03-29T23:07:46.489Z,102366.48